createdAt,value
2023-10-25T00:01:12.884Z,1.73
2023-10-25T00:03:39.660Z,1.83
2023-10-25T00:06:06.359Z,2.08
2023-10-25T00:08:32.969Z,1.80
2023-10-25T00:11:03.321Z,1.75
2023-10-25T00:13:29.845Z,1.88
2023-10-25T00:15:56.416Z,2.08
2023-10-25T00:18:22.904Z,1.80
2023-10-25T00:20:49.378Z,1.95
2023-10-25T00:23:15.881Z,2.10
2023-10-25T00:25:42.378Z,1.75
2023-10-25T00:28:08.934Z,1.92
2023-10-25T00:30:35.456Z,1.90
2023-10-25T00:33:02.136Z,1.95
2023-10-25T00:35:28.699Z,2.00
2023-10-25T00:37:55.213Z,1.70
2023-10-25T00:40:21.781Z,1.73
2023-10-25T00:42:48.272Z,1.92
2023-10-25T00:45:14.873Z,1.77
2023-10-25T00:47:42.104Z,1.80
2023-10-25T00:50:10.093Z,1.70
2023-10-25T00:52:37.658Z,1.95
2023-10-25T00:55:05.016Z,1.80
2023-10-25T00:57:33.100Z,1.65
2023-10-25T01:00:01.550Z,1.80
2023-10-25T01:02:28.502Z,2.15
2023-10-25T01:04:55.048Z,1.90
2023-10-25T01:07:21.621Z,1.80
2023-10-25T01:09:48.559Z,1.80
2023-10-25T01:12:15.176Z,1.77
2023-10-25T01:14:41.706Z,1.90
2023-10-25T01:17:08.425Z,1.85
2023-10-25T01:19:34.983Z,1.80
2023-10-25T01:22:01.510Z,1.67
2023-10-25T01:24:28.190Z,1.70
2023-10-25T01:26:54.857Z,1.85
2023-10-25T01:29:21.696Z,1.80
2023-10-25T01:31:48.159Z,1.73
2023-10-25T01:34:14.768Z,1.80
2023-10-25T01:36:41.375Z,1.90
2023-10-25T01:39:07.999Z,1.75
2023-10-25T01:41:34.481Z,1.73
2023-10-25T01:44:00.960Z,1.85
2023-10-25T01:46:27.568Z,1.98
2023-10-25T01:48:54.148Z,1.70
2023-10-25T01:51:20.745Z,1.60
2023-10-25T01:53:47.224Z,1.60
2023-10-25T01:56:13.699Z,1.70
2023-10-25T01:58:40.201Z,1.92
2023-10-25T02:01:09.940Z,1.85
2023-10-25T02:03:36.651Z,1.77
2023-10-25T02:06:16.321Z,1.75
2023-10-25T02:08:42.949Z,1.75
2023-10-25T02:11:09.513Z,1.58
2023-10-25T02:13:36.126Z,1.60
2023-10-25T02:16:16.394Z,1.60
2023-10-25T02:18:43.198Z,1.80
2023-10-25T02:21:10.265Z,1.92
2023-10-25T02:23:36.983Z,1.70
2023-10-25T02:26:03.461Z,1.63
2023-10-25T02:28:29.972Z,1.58
2023-10-25T02:30:56.488Z,1.80
2023-10-25T02:33:23.602Z,1.77
2023-10-25T02:35:50.236Z,1.70
2023-10-25T02:38:16.703Z,1.90
2023-10-25T02:40:43.169Z,1.70
2023-10-25T02:43:09.648Z,1.80
2023-10-25T02:45:36.231Z,1.90
2023-10-25T02:48:02.805Z,1.60
2023-10-25T02:52:59.188Z,1.50
2023-10-25T02:55:25.684Z,2.28
2023-10-25T02:57:52.299Z,1.70
2023-10-25T03:00:19.607Z,1.60
2023-10-25T03:02:46.171Z,2.00
2023-10-25T03:05:13.038Z,1.90
2023-10-25T03:07:39.559Z,1.67
2023-10-25T03:10:06.322Z,1.65
2023-10-25T03:12:34.033Z,1.90
2023-10-25T03:15:01.158Z,1.88
2023-10-25T03:17:29.496Z,1.92
2023-10-25T03:19:56.052Z,1.80
2023-10-25T03:22:22.841Z,1.75
2023-10-25T03:24:49.575Z,1.60
2023-10-25T03:27:16.094Z,1.70
2023-10-25T03:29:43.735Z,1.30
2023-10-25T03:32:10.311Z,1.80
2023-10-25T03:34:36.850Z,1.70
2023-10-25T03:37:03.503Z,1.90
2023-10-25T03:39:30.058Z,1.80
2023-10-25T03:41:56.581Z,1.77
2023-10-25T03:44:23.155Z,1.60
2023-10-25T03:46:49.839Z,1.77
2023-10-25T03:49:16.465Z,1.83
2023-10-25T03:51:43.570Z,1.63
2023-10-25T03:54:10.100Z,1.65
2023-10-25T03:56:36.652Z,1.80
2023-10-25T03:59:03.335Z,1.75
2023-10-25T04:01:30.088Z,1.63
2023-10-25T04:03:56.761Z,1.73
2023-10-25T04:06:23.981Z,2.08
2023-10-25T04:08:50.431Z,1.50
2023-10-25T04:11:16.932Z,1.73
2023-10-25T04:13:44.992Z,1.85
2023-10-25T04:16:11.579Z,1.95
2023-10-25T04:18:38.478Z,2.10
2023-10-25T04:21:09.902Z,1.85
2023-10-25T04:23:36.434Z,1.92
2023-10-25T04:26:09.697Z,2.15
2023-10-25T04:28:37.427Z,1.70
2023-10-25T04:31:04.107Z,1.77
2023-10-25T04:33:31.139Z,1.60
2023-10-25T04:35:57.897Z,1.65
2023-10-25T04:38:25.043Z,1.70
2023-10-25T04:40:52.254Z,1.83
2023-10-25T04:43:18.932Z,1.98
2023-10-25T04:45:45.647Z,1.80
2023-10-25T04:48:12.166Z,1.50
2023-10-25T04:50:38.799Z,1.65
2023-10-25T04:53:05.847Z,1.55
2023-10-25T04:55:32.703Z,1.90
2023-10-25T04:57:59.364Z,1.70
2023-10-25T05:00:26.117Z,1.75
2023-10-25T05:02:52.776Z,1.55
2023-10-25T05:05:19.452Z,1.60
2023-10-25T05:07:47.219Z,1.80
2023-10-25T05:10:14.013Z,2.00
2023-10-25T05:12:45.836Z,1.60
2023-10-25T05:15:13.336Z,1.92
2023-10-25T05:17:40.198Z,1.63
2023-10-25T05:20:07.566Z,1.70
2023-10-25T05:22:38.357Z,1.83
2023-10-25T05:25:05.674Z,1.52
2023-10-25T05:27:35.620Z,1.80
2023-10-25T05:30:05.580Z,1.90
2023-10-25T05:32:33.282Z,1.65
2023-10-25T05:35:00.605Z,2.25
2023-10-25T05:37:27.533Z,1.85
2023-10-25T05:39:54.288Z,1.80
2023-10-25T05:42:21.413Z,1.65
2023-10-25T05:44:56.087Z,1.90
2023-10-25T05:47:23.117Z,1.80
2023-10-25T05:49:49.874Z,1.80
2023-10-25T05:52:16.728Z,1.73
2023-10-25T05:54:43.701Z,1.60
2023-10-25T05:57:10.712Z,1.65
2023-10-25T05:59:37.534Z,1.60
2023-10-25T06:02:11.100Z,1.67
2023-10-25T06:07:04.793Z,1.48
2023-10-25T06:09:31.478Z,1.60
2023-10-25T06:11:58.295Z,1.70
2023-10-25T06:14:25.050Z,1.67
2023-10-25T06:16:51.707Z,1.65
2023-10-25T06:19:18.317Z,1.38
2023-10-25T06:21:44.939Z,1.58
2023-10-25T06:24:11.680Z,1.50
2023-10-25T06:26:38.312Z,1.42
2023-10-25T06:29:04.787Z,1.33
2023-10-25T06:31:31.445Z,1.50
2023-10-25T06:33:58.071Z,1.40
2023-10-25T06:36:24.696Z,1.50
2023-10-25T06:38:51.373Z,1.58
2023-10-25T06:41:18.579Z,1.30
2023-10-25T06:43:45.573Z,1.60
2023-10-25T06:46:12.572Z,1.40
2023-10-25T06:48:39.616Z,1.60
2023-10-25T06:51:06.772Z,1.50
2023-10-25T06:53:33.639Z,1.65
2023-10-25T06:56:00.658Z,1.70
2023-10-25T06:58:27.335Z,1.33
2023-10-25T07:00:56.323Z,1.80
2023-10-25T07:03:28.233Z,1.67
2023-10-25T07:05:56.393Z,1.88
2023-10-25T07:08:23.108Z,1.80
2023-10-25T07:10:50.798Z,1.90
2023-10-25T07:13:17.389Z,2.13
2023-10-25T07:15:43.936Z,2.00
2023-10-25T07:18:10.471Z,2.10
2023-10-25T07:20:37.048Z,2.13
2023-10-25T07:23:05.956Z,1.98
2023-10-25T07:25:32.777Z,1.90
2023-10-25T07:27:59.345Z,1.90
2023-10-25T07:30:26.161Z,2.00
2023-10-25T07:32:52.746Z,2.10
2023-10-25T07:35:19.247Z,1.80
2023-10-25T07:37:45.761Z,1.80
2023-10-25T07:40:12.615Z,2.10
2023-10-25T07:42:39.163Z,1.95
2023-10-25T07:45:06.015Z,2.00
2023-10-25T07:47:32.953Z,2.00
2023-10-25T07:49:59.600Z,2.00
2023-10-25T07:52:28.761Z,2.08
2023-10-25T07:54:55.376Z,1.92
2023-10-25T07:57:54.405Z,1.92
2023-10-25T08:00:10.842Z,1.70
2023-10-25T08:02:40.291Z,1.83
2023-10-25T08:05:08.563Z,1.83
2023-10-25T08:07:37.845Z,1.83
2023-10-25T08:10:06.316Z,1.63
2023-10-25T08:12:36.402Z,1.80
2023-10-25T08:15:03.467Z,1.65
2023-10-25T08:17:30.029Z,1.70
2023-10-25T08:19:56.771Z,1.70
2023-10-25T08:22:23.208Z,1.73
2023-10-25T08:24:49.721Z,1.70
2023-10-25T08:27:16.226Z,1.60
2023-10-25T08:29:42.786Z,1.70
2023-10-25T08:32:09.278Z,1.60
2023-10-25T08:34:35.771Z,1.60
2023-10-25T08:37:02.198Z,1.50
2023-10-25T08:39:28.686Z,1.50
2023-10-25T08:41:55.329Z,1.67
2023-10-25T08:44:22.221Z,1.48
2023-10-25T08:46:50.580Z,1.65
2023-10-25T08:49:17.156Z,1.60
2023-10-25T08:51:45.761Z,1.48
2023-10-25T08:54:12.957Z,1.60
2023-10-25T08:56:39.506Z,1.50
2023-10-25T08:59:06.422Z,1.42
2023-10-25T09:01:33.296Z,1.23
2023-10-25T09:04:05.969Z,1.50
2023-10-25T09:06:33.127Z,1.38
2023-10-25T09:11:37.658Z,1.40
2023-10-25T09:14:04.460Z,1.50
2023-10-25T09:16:31.720Z,1.45
2023-10-25T09:18:59.407Z,1.40
2023-10-25T09:21:26.565Z,1.60
2023-10-25T09:26:19.842Z,1.33
2023-10-25T09:28:49.621Z,1.42
2023-10-25T09:31:24.896Z,1.40
2023-10-25T09:33:52.205Z,1.50
2023-10-25T09:36:22.187Z,1.38
2023-10-25T09:38:50.332Z,1.42
2023-10-25T09:41:20.194Z,1.50
2023-10-25T09:43:51.207Z,1.40
2023-10-25T09:46:19.237Z,1.52
2023-10-25T09:48:51.884Z,1.50
2023-10-25T09:51:22.071Z,1.60
2023-10-25T09:53:51.882Z,1.38
2023-10-25T09:56:19.723Z,1.55
2023-10-25T09:58:46.816Z,1.50
2023-10-25T10:01:13.476Z,1.63
2023-10-25T10:03:49.819Z,1.52
2023-10-25T10:06:23.485Z,1.40
2023-10-25T10:08:57.807Z,1.40
2023-10-25T10:11:28.500Z,1.42
2023-10-25T10:14:13.767Z,1.55
2023-10-25T10:16:40.401Z,1.50
2023-10-25T10:19:12.054Z,1.70
2023-10-25T10:21:57.274Z,1.30
2023-10-25T10:24:44.130Z,1.80
2023-10-25T10:27:12.161Z,1.30
2023-10-25T10:29:39.526Z,1.50
2023-10-25T10:32:07.734Z,1.33
2023-10-25T10:34:46.295Z,1.50
2023-10-25T10:37:14.271Z,1.60
2023-10-25T10:40:03.315Z,1.25
2023-10-25T10:42:31.982Z,1.50
2023-10-25T10:44:58.728Z,1.40
2023-10-25T10:47:37.291Z,1.50
2023-10-25T10:50:14.133Z,1.50
2023-10-25T10:52:41.392Z,1.42
2023-10-25T10:57:34.625Z,1.30
2023-10-25T11:00:01.226Z,1.25
2023-10-25T11:02:27.847Z,1.40
2023-10-25T11:04:54.441Z,1.48
2023-10-25T11:07:21.065Z,1.38
2023-10-25T11:09:47.539Z,1.50
2023-10-25T11:12:15.964Z,1.30
2023-10-25T11:14:43.618Z,1.40
2023-10-25T11:17:10.418Z,1.45
2023-10-25T11:19:37.061Z,1.42
2023-10-25T11:22:03.695Z,1.40
2023-10-25T11:24:30.760Z,1.38
2023-10-25T11:26:57.579Z,1.15
2023-10-25T11:29:24.462Z,1.25
2023-10-25T11:31:51.791Z,1.30
2023-10-25T11:36:44.624Z,1.77
2023-10-25T11:39:11.703Z,1.40
2023-10-25T11:41:38.468Z,1.30
2023-10-25T11:44:05.159Z,1.23
2023-10-25T11:46:59.914Z,1.40
2023-10-25T11:49:26.494Z,1.30
2023-10-25T11:51:56.864Z,1.15
2023-10-25T11:54:23.364Z,1.30
2023-10-25T11:56:49.892Z,1.20
2023-10-25T11:59:16.398Z,1.30
2023-10-25T12:01:42.970Z,1.20
2023-10-25T12:04:10.515Z,1.20
2023-10-25T12:06:38.893Z,1.20
2023-10-25T12:09:05.483Z,1.20
2023-10-25T12:11:32.021Z,1.17
2023-10-25T12:13:58.614Z,1.27
2023-10-25T12:16:25.166Z,1.20
2023-10-25T12:18:51.713Z,1.23
2023-10-25T12:21:18.213Z,1.40
2023-10-25T12:23:44.754Z,1.13
2023-10-25T12:26:12.274Z,1.10
2023-10-25T12:28:38.933Z,1.30
2023-10-25T12:31:05.378Z,1.35
2023-10-25T12:33:31.967Z,1.27
2023-10-25T12:35:58.608Z,1.30
2023-10-25T12:38:25.228Z,1.20
2023-10-25T12:40:51.787Z,1.20
2023-10-25T12:43:18.412Z,1.20
2023-10-25T12:45:45.019Z,1.10
2023-10-25T12:48:11.652Z,1.15
2023-10-25T12:50:38.363Z,1.30
2023-10-25T12:53:04.928Z,1.48
2023-10-25T12:55:31.489Z,1.10
2023-10-25T12:57:58.083Z,1.10
2023-10-25T13:00:24.582Z,1.20
2023-10-25T13:02:51.143Z,1.30
2023-10-25T13:05:17.640Z,1.20
2023-10-25T13:07:45.098Z,1.10
2023-10-25T13:10:11.648Z,1.30
2023-10-25T13:12:39.004Z,1.10
2023-10-25T13:17:32.347Z,1.10
2023-10-25T13:19:59.347Z,1.15
2023-10-25T13:22:26.356Z,0.93
2023-10-25T13:24:52.818Z,1.20
2023-10-25T13:27:19.413Z,1.15
2023-10-25T13:29:46.183Z,1.17
2023-10-25T13:32:13.182Z,1.40
2023-10-25T13:34:39.728Z,1.30
2023-10-25T13:37:07.542Z,1.23
2023-10-25T13:39:34.294Z,1.13
2023-10-25T13:42:00.788Z,1.10
2023-10-25T13:44:27.328Z,1.10
2023-10-25T13:46:53.825Z,1.20
2023-10-25T13:49:20.315Z,1.00
2023-10-25T13:51:46.864Z,1.30
2023-10-25T13:54:13.564Z,1.10
2023-10-25T13:56:40.070Z,1.10
2023-10-25T13:59:06.582Z,1.30
2023-10-25T14:01:33.155Z,1.02
2023-10-25T14:03:59.906Z,1.30
2023-10-25T14:06:26.556Z,0.90
2023-10-25T14:08:53.136Z,1.20
2023-10-25T14:11:20.091Z,1.02
2023-10-25T14:13:46.866Z,1.15
2023-10-25T14:16:13.395Z,1.02
2023-10-25T14:18:40.174Z,1.10
2023-10-25T14:21:12.215Z,1.10
2023-10-25T14:23:41.153Z,1.10
2023-10-25T14:26:08.419Z,1.27
2023-10-25T14:28:35.970Z,1.02
2023-10-25T14:31:02.914Z,1.15
2023-10-25T14:33:29.525Z,1.00
2023-10-25T14:35:58.018Z,0.95
2023-10-25T14:38:24.571Z,1.10
2023-10-25T14:40:51.090Z,1.00
2023-10-25T14:43:17.678Z,1.00
2023-10-25T14:45:44.267Z,1.10
2023-10-25T14:48:10.945Z,1.20
2023-10-25T14:50:38.664Z,1.02
2023-10-25T14:53:05.609Z,1.30
2023-10-25T14:55:36.739Z,1.10
2023-10-25T14:58:03.716Z,1.33
2023-10-25T15:00:30.254Z,1.05
2023-10-25T15:02:57.932Z,0.93
2023-10-25T15:05:26.858Z,1.10
2023-10-25T15:07:56.282Z,1.10
2023-10-25T15:10:23.139Z,1.33
2023-10-25T15:12:49.626Z,1.40
2023-10-25T15:15:16.240Z,1.10
2023-10-25T15:17:46.638Z,1.20
2023-10-25T15:20:14.795Z,1.00
2023-10-25T15:22:41.836Z,1.10
2023-10-25T15:25:08.622Z,1.10
2023-10-25T15:27:35.195Z,1.35
2023-10-25T15:30:02.597Z,1.20
2023-10-25T15:32:29.211Z,1.33
2023-10-25T15:34:55.841Z,1.17
2023-10-25T15:37:22.518Z,1.40
2023-10-25T15:40:04.457Z,1.60
2023-10-25T15:42:36.831Z,1.40
2023-10-25T15:45:08.450Z,1.35
2023-10-25T15:47:35.210Z,1.52
2023-10-25T15:50:01.933Z,1.90
2023-10-25T15:52:28.431Z,1.60
2023-10-25T15:54:55.452Z,2.00
2023-10-25T15:57:21.943Z,2.03
2023-10-25T15:59:51.600Z,1.85
2023-10-25T16:02:18.262Z,2.60
2023-10-25T16:04:45.025Z,2.50
2023-10-25T16:07:11.849Z,2.50
2023-10-25T16:09:38.364Z,2.67
2023-10-25T16:12:05.175Z,2.45
2023-10-25T16:14:31.855Z,2.28
2023-10-25T16:16:59.171Z,2.30
2023-10-25T16:19:25.791Z,2.22
2023-10-25T16:21:52.373Z,2.00
2023-10-25T16:24:19.026Z,1.90
2023-10-25T16:26:45.730Z,1.90
2023-10-25T16:29:12.585Z,2.00
2023-10-25T16:31:39.164Z,1.73
2023-10-25T16:34:05.698Z,1.98
2023-10-25T16:36:33.094Z,1.83
2023-10-25T16:38:59.737Z,1.85
2023-10-25T16:41:26.478Z,1.80
2023-10-25T16:43:53.014Z,1.80
2023-10-25T16:46:19.741Z,1.60
2023-10-25T16:48:46.471Z,1.83
2023-10-25T16:51:14.190Z,1.48
2023-10-25T16:53:41.565Z,1.65
2023-10-25T16:56:08.143Z,1.60
2023-10-25T16:58:34.940Z,1.70
2023-10-25T17:01:01.738Z,1.60
2023-10-25T17:03:29.020Z,1.70
2023-10-25T17:05:57.304Z,1.60
2023-10-25T17:08:24.828Z,1.33
2023-10-25T17:10:57.702Z,1.70
2023-10-25T17:13:27.309Z,1.48
2023-10-25T17:16:00.112Z,1.60
2023-10-25T17:18:27.148Z,1.55
2023-10-25T17:20:54.954Z,1.70
2023-10-25T17:23:23.460Z,1.40
2023-10-25T17:25:50.597Z,1.50
2023-10-25T17:28:17.421Z,1.40
2023-10-25T17:30:44.314Z,1.30
2023-10-25T17:33:17.049Z,1.42
2023-10-25T17:35:45.498Z,1.33
2023-10-25T17:38:12.000Z,1.30
2023-10-25T17:40:38.586Z,1.40
2023-10-25T17:43:06.355Z,1.40
2023-10-25T17:45:35.152Z,1.40
2023-10-25T17:48:02.846Z,1.30
2023-10-25T17:50:35.761Z,1.50
2023-10-25T17:53:03.297Z,1.30
2023-10-25T17:55:29.861Z,1.60
2023-10-25T17:57:57.078Z,1.50
2023-10-25T18:00:23.695Z,1.30
2023-10-25T18:02:50.727Z,1.35
2023-10-25T18:05:17.416Z,1.40
2023-10-25T18:07:43.901Z,1.40
2023-10-25T18:10:10.598Z,1.10
2023-10-25T18:12:37.130Z,1.40
2023-10-25T18:15:05.884Z,1.35
2023-10-25T18:17:32.515Z,1.30
2023-10-25T18:19:59.066Z,1.30
2023-10-25T18:22:26.257Z,1.27
2023-10-25T18:24:52.942Z,1.40
2023-10-25T18:27:19.615Z,1.52
2023-10-25T18:30:02.629Z,1.25
2023-10-25T18:32:34.315Z,1.60
2023-10-25T18:35:01.128Z,1.50
2023-10-25T18:37:28.974Z,1.92
2023-10-25T18:39:56.125Z,1.50
2023-10-25T18:42:23.336Z,1.50
2023-10-25T18:47:16.436Z,1.60
2023-10-25T18:49:47.573Z,1.30
2023-10-25T18:52:14.020Z,1.33
2023-10-25T18:54:41.214Z,1.50
2023-10-25T18:57:08.082Z,1.20
2023-10-25T18:59:34.698Z,1.17
2023-10-25T19:02:01.493Z,1.40
2023-10-25T19:04:29.598Z,1.20
2023-10-25T19:07:21.392Z,1.20
2023-10-25T19:09:49.595Z,1.20
2023-10-25T19:12:20.258Z,1.15
2023-10-25T19:14:47.554Z,1.40
2023-10-25T19:17:14.346Z,1.42
2023-10-25T19:19:48.655Z,1.20
2023-10-25T19:22:19.769Z,1.02
2023-10-25T19:24:48.460Z,1.20
2023-10-25T19:27:17.306Z,1.30
2023-10-25T19:29:44.127Z,1.10
2023-10-25T19:32:10.670Z,1.15
2023-10-25T19:34:37.192Z,1.30
2023-10-25T19:37:03.847Z,1.20
2023-10-25T19:39:32.371Z,1.20
2023-10-25T19:42:05.981Z,1.10
2023-10-25T19:44:32.721Z,1.30
2023-10-25T19:46:59.197Z,1.15
2023-10-25T19:49:26.031Z,1.20
2023-10-25T19:51:52.688Z,1.50
2023-10-25T19:54:20.463Z,1.15
2023-10-25T19:56:47.150Z,1.20
2023-10-25T19:59:13.806Z,1.15
2023-10-25T20:01:40.388Z,1.23
2023-10-25T20:04:07.137Z,1.35
2023-10-25T20:06:33.966Z,1.40
2023-10-25T20:09:02.390Z,1.13
2023-10-25T20:11:30.300Z,1.35
2023-10-25T20:13:57.464Z,1.40
2023-10-25T20:16:24.080Z,1.20
2023-10-25T20:18:51.397Z,1.50
2023-10-25T20:21:17.910Z,1.40
2023-10-25T20:23:44.707Z,1.30
2023-10-25T20:26:25.779Z,1.30
2023-10-25T20:31:24.014Z,1.38
2023-10-25T20:33:53.545Z,1.58
2023-10-25T20:36:20.421Z,1.63
2023-10-25T20:38:47.083Z,1.60
2023-10-25T20:41:13.667Z,1.30
2023-10-25T20:43:40.212Z,1.60
2023-10-25T20:46:08.390Z,1.70
2023-10-25T20:48:34.952Z,1.70
2023-10-25T20:51:03.709Z,1.75
2023-10-25T20:53:30.880Z,1.63
2023-10-25T20:55:58.778Z,1.95
2023-10-25T20:58:25.463Z,1.92
2023-10-25T21:00:52.032Z,1.67
2023-10-25T21:03:18.899Z,2.10
2023-10-25T21:05:45.499Z,2.10
2023-10-25T21:08:11.992Z,2.00
2023-10-25T21:10:38.473Z,2.05
2023-10-25T21:13:04.975Z,2.00
2023-10-25T21:15:34.786Z,2.30
2023-10-25T21:18:01.430Z,2.30
2023-10-25T21:20:27.921Z,2.30
2023-10-25T21:22:54.395Z,2.20
2023-10-25T21:25:20.837Z,2.17
2023-10-25T21:27:47.273Z,2.15
2023-10-25T21:30:13.891Z,2.33
2023-10-25T21:32:40.523Z,2.50
2023-10-25T21:35:07.241Z,2.20
2023-10-25T21:37:33.761Z,2.40
2023-10-25T21:40:00.264Z,2.38
2023-10-25T21:42:26.797Z,2.28
2023-10-25T21:44:53.279Z,2.53
2023-10-25T21:47:19.738Z,2.40
2023-10-25T21:49:46.378Z,2.40
2023-10-25T21:52:12.857Z,2.30
2023-10-25T21:54:39.476Z,2.17
2023-10-25T21:57:06.104Z,2.30
2023-10-25T21:59:52.831Z,2.22
2023-10-25T22:02:21.486Z,1.90
2023-10-25T22:04:54.424Z,2.15
2023-10-25T22:07:21.091Z,2.10
2023-10-25T22:09:48.064Z,2.30
2023-10-25T22:12:14.552Z,2.05
2023-10-25T22:14:41.223Z,2.15
2023-10-25T22:17:07.776Z,2.47
2023-10-25T22:19:34.341Z,2.28
2023-10-25T22:22:00.848Z,2.20
2023-10-25T22:24:27.357Z,2.00
2023-10-25T22:26:54.003Z,1.90
2023-10-25T22:29:20.487Z,2.25
2023-10-25T22:31:47.063Z,2.10
2023-10-25T22:34:18.460Z,2.13
2023-10-25T22:36:49.213Z,2.30
2023-10-25T22:39:16.550Z,1.88
2023-10-25T22:41:46.161Z,2.00
2023-10-25T22:44:13.439Z,2.20
2023-10-25T22:46:40.079Z,2.13
2023-10-25T22:49:06.722Z,2.05
2023-10-25T22:51:33.336Z,1.88
2023-10-25T22:53:59.850Z,2.15
2023-10-25T22:56:26.330Z,2.22
2023-10-25T22:58:52.904Z,2.22
2023-10-25T23:01:19.442Z,2.20
2023-10-25T23:03:45.952Z,2.33
2023-10-25T23:06:12.477Z,2.45
2023-10-25T23:08:39.060Z,2.20
2023-10-25T23:11:05.562Z,2.30
2023-10-25T23:13:32.024Z,2.10
2023-10-25T23:16:02.003Z,2.28
2023-10-25T23:18:30.819Z,2.33
2023-10-25T23:20:57.728Z,2.17
2023-10-25T23:23:24.199Z,2.20
2023-10-25T23:25:50.713Z,2.00
2023-10-25T23:28:17.175Z,2.17
2023-10-25T23:30:43.670Z,2.78
2023-10-25T23:33:10.268Z,2.40
2023-10-25T23:35:36.807Z,2.17
2023-10-25T23:38:04.458Z,2.05
2023-10-25T23:40:30.999Z,2.30
2023-10-25T23:42:57.490Z,2.20
2023-10-25T23:45:24.178Z,2.20
2023-10-25T23:47:51.030Z,2.15
2023-10-25T23:50:17.611Z,2.22
2023-10-25T23:52:45.754Z,2.22
2023-10-25T23:55:13.213Z,2.50
2023-10-25T23:57:39.712Z,2.45
